Time;durP1;ratioP1;P1;durP2;ratioP2;P2;SDS_P1;SDS_P2;PMS_P1;PMS_P2;Temp;Humidity;BMP_temperature;BMP_pressure;BME280_temperature;BME280_humidity;BME280_pressure;Samples;Min_cycle;Max_cycle;Signal;HPM_P1;HPM_P2
2022/12/02 00:00:48;;;;;;;31.05;21.50;;;;;;;1.98;68.23;99730.19;5106676;28;20050;-72
2022/12/02 00:03:19;;;;;;;32.95;21.23;;;;;;;1.77;68.48;99699.16;5107502;28;20036;-71
2022/12/02 00:05:49;;;;;;;34.35;22.70;;;;;;;1.96;68.39;99729.34;5106591;28;20050;-71
2022/12/02 00:08:19;;;;;;;30.15;21.48;;;;;;;1.97;68.14;99732.84;5107697;28;20184;-71
2022/12/02 00:10:46;;;;;;;33.05;21.58;;;;;;;1.77;68.14;99694.78;5106452;28;20048;-72
2022/12/02 00:13:21;;;;;;;35.42;22.27;;;;;;;1.93;68.13;99729.41;5107490;28;20044;-71
2022/12/02 00:15:50;;;;;;;35.35;23.77;;;;;;;1.90;68.16;99730.31;5107282;28;20048;-72
2022/12/02 00:18:17;;;;;;;34.67;22.77;;;;;;;1.89;68.15;99728.59;5107483;28;20040;-72
2022/12/02 00:20:45;;;;;;;33.13;20.83;;;;;;;1.63;68.19;99682.78;5107630;28;20169;-72
2022/12/02 00:23:13;;;;;;;35.15;20.95;;;;;;;1.91;68.23;99720.72;5107688;28;20345;-71
2022/12/02 00:25:41;;;;;;;33.03;22.33;;;;;;;1.64;68.35;99674.94;5107311;28;20288;-71
2022/12/02 00:28:08;;;;;;;31.45;20.75;;;;;;;1.89;68.34;99718.13;5107295;28;20044;-71
2022/12/02 00:30:34;;;;;;;34.75;21.65;;;;;;;1.88;68.36;99724.25;5107266;28;20094;-72
2022/12/02 00:33:01;;;;;;;31.92;21.60;;;;;;;1.88;68.36;99716.41;5107163;28;20102;-71
2022/12/02 00:35:28;;;;;;;33.08;21.85;;;;;;;1.89;68.24;99717.25;5106453;28;20044;-72
2022/12/02 00:37:54;;;;;;;36.45;23.77;;;;;;;1.87;68.24;99716.41;5107300;28;20293;-72
2022/12/02 00:40:22;;;;;;;33.83;22.33;;;;;;;1.11;68.22;99589.44;5106442;28;20040;-72
2022/12/02 00:42:49;;;;;;;32.03;21.42;;;;;;;1.85;68.24;99712.97;5106734;28;20036;-72
2022/12/02 00:48:01;;;;;;;31.92;23.05;;;;;;;1.82;68.12;99716.47;5107058;28;20075;-71
2022/12/02 00:50:28;;;;;;;34.83;22.13;;;;;;;1.51;68.29;99668.97;5106376;28;20060;-72
2022/12/02 00:52:54;;;;;;;38.05;23.30;;;;;;;1.83;68.27;99714.75;5106702;28;20284;-72
2022/12/02 00:55:22;;;;;;;33.35;21.45;;;;;;;1.83;68.38;99718.22;5106784;28;20069;-72
2022/12/02 00:57:49;;;;;;;33.97;23.10;;;;;;;1.82;68.23;99710.41;5106727;28;20089;-71
2022/12/02 01:00:17;;;;;;;35.83;23.27;;;;;;;1.81;68.21;99717.38;5106367;28;20241;-72
2022/12/02 01:02:43;;;;;;;33.58;22.38;;;;;;;1.80;68.46;99718.25;5106931;28;20050;-72
2022/12/02 01:05:10;;;;;;;36.95;22.88;;;;;;;1.81;68.35;99719.13;5106301;28;20046;-72
2022/12/02 01:07:37;;;;;;;33.33;22.27;;;;;;;1.80;68.32;99715.66;5106304;28;20039;-72
2022/12/02 01:10:05;;;;;;;32.55;21.63;;;;;;;1.80;68.29;99720.88;5105414;28;20035;-72
2022/12/02 01:12:33;;;;;;;34.88;23.15;;;;;;;1.79;68.40;99726.97;5106491;28;20040;-72
2022/12/02 01:15:00;;;;;;;33.53;22.20;;;;;;;1.78;68.35;99720.03;5106133;28;20093;-72
2022/12/02 01:17:27;;;;;;;33.47;22.33;;;;;;;1.76;68.44;99721.78;5105306;28;20234;-71
2022/12/02 01:19:53;;;;;;;35.35;23.02;;;;;;;1.75;68.35;99720.06;5105175;28;20043;-72
2022/12/02 01:22:20;;;;;;;36.38;24.17;;;;;;;1.75;68.29;99719.22;5106295;28;20040;-72
2022/12/02 01:24:47;;;;;;;33.28;21.98;;;;;;;1.76;68.38;99721.78;5105149;28;20085;-72
2022/12/02 01:27:14;;;;;;;39.67;24.67;;;;;;;1.75;68.27;99711.38;5106520;28;20040;-72
2022/12/02 01:29:42;;;;;;;34.13;23.30;;;;;;;1.36;68.20;99637.84;5106504;28;20223;-72
2022/12/02 01:32:08;;;;;;;39.42;24.35;;;;;;;1.75;68.27;99703.53;5106064;28;20062;-72
2022/12/02 01:34:35;;;;;;;31.77;21.85;;;;;;;1.74;68.19;99699.19;5105799;28;20047;-72
2022/12/02 01:37:02;;;;;;;31.98;21.30;;;;;;;1.76;68.31;99700.03;5106093;28;20059;-72
2022/12/02 01:39:29;;;;;;;35.35;21.70;;;;;;;1.48;68.22;99661.19;5105744;28;20238;-72
2022/12/02 01:41:56;;;;;;;34.45;22.42;;;;;;;1.76;68.34;99700.88;5105725;28;20032;-72
2022/12/02 01:44:23;;;;;;;37.17;22.83;;;;;;;1.76;68.28;99708.72;5104656;28;20300;-72
2022/12/02 01:46:52;;;;;;;31.30;22.02;;;;;;;1.74;68.12;99693.97;5105781;28;20300;-72
2022/12/02 01:49:19;;;;;;;32.38;21.80;;;;;;;1.73;68.28;99692.22;5105974;28;20040;-72
2022/12/02 01:51:46;;;;;;;38.63;23.70;;;;;;;1.73;68.28;99695.72;5104635;28;20062;-72
2022/12/02 01:54:13;;;;;;;34.25;21.77;;;;;;;1.73;68.28;99698.31;5105839;28;20101;-72
2022/12/02 01:56:40;;;;;;;35.42;22.63;;;;;;;1.65;68.10;99686.25;5105876;28;20048;-72
2022/12/02 01:59:07;;;;;;;35.03;23.38;;;;;;;1.71;68.18;99691.38;5105566;28;20043;-71
2022/12/02 02:01:35;;;;;;;36.08;22.73;;;;;;;0.98;68.08;99611.38;5105589;28;20090;-72
2022/12/02 02:04:04;;;;;;;34.92;23.77;;;;;;;1.70;68.12;99700.97;5104729;28;20234;-72
2022/12/02 02:06:42;;;;;;;35.13;21.92;;;;;;;1.69;68.05;99699.25;5105524;28;20292;-72
2022/12/02 02:09:10;;;;;;;35.90;23.05;;;;;;;1.69;68.20;99695.78;5105497;28;20048;-72
2022/12/02 02:11:39;;;;;;;34.15;23.67;;;;;;;1.05;68.06;99626.06;5106057;28;20165;-72
2022/12/02 02:14:08;;;;;;;33.78;22.52;;;;;;;1.64;68.20;99697.59;5105948;28;20292;-72
2022/12/02 02:16:37;;;;;;;34.53;22.58;;;;;;;1.65;68.44;99691.47;5104618;28;20245;-71
2022/12/02 02:19:10;;;;;;;37.35;23.88;;;;;;;1.64;68.33;99702.81;5104621;28;20048;-72
2022/12/02 02:21:42;;;;;;;39.45;24.02;;;;;;;1.65;68.18;99701.94;5105387;28;20082;-72
2022/12/02 02:24:10;;;;;;;38.03;24.63;;;;;;;1.65;68.39;99694.94;5105950;28;20231;-72
2022/12/02 02:26:37;;;;;;;34.40;22.60;;;;;;;1.65;68.29;99687.13;5105895;28;20226;-72
2022/12/02 02:29:04;;;;;;;32.30;21.88;;;;;;;1.64;68.28;99688.00;5105674;28;20182;-72
2022/12/02 02:31:30;;;;;;;34.33;22.50;;;;;;;1.64;68.27;99690.59;5104507;28;20036;-71
2022/12/02 02:33:57;;;;;;;34.88;22.58;;;;;;;1.00;68.24;99599.16;5104406;28;20043;-72
2022/12/02 02:36:24;;;;;;;35.47;23.48;;;;;;;1.61;68.40;99690.66;5105811;28;20069;-72
2022/12/02 02:38:51;;;;;;;34.90;23.48;;;;;;;0.78;68.43;99549.00;5105822;28;20062;-72
2022/12/02 02:41:20;;;;;;;36.42;24.05;;;;;;;1.61;68.30;99687.19;5105228;28;20052;-72
2022/12/02 02:43:47;;;;;;;32.60;22.50;;;;;;;1.61;68.30;99692.41;5104348;28;20059;-72
2022/12/02 02:46:14;;;;;;;32.63;21.83;;;;;;;1.62;68.45;99696.75;5104345;28;20044;-72
2022/12/02 02:48:42;;;;;;;31.85;21.27;;;;;;;1.62;68.24;99720.25;5104857;28;20044;-71
2022/12/02 02:51:09;;;;;;;34.60;23.13;;;;;;;1.35;68.35;99659.63;5104917;28;20062;-72
2022/12/02 02:53:36;;;;;;;34.70;22.05;;;;;;;1.58;68.24;99691.53;5105315;28;20226;-72
2022/12/02 02:56:03;;;;;;;35.08;23.25;;;;;;;0.99;68.33;99600.06;5105638;28;20063;-72
2022/12/02 02:58:34;;;;;;;38.38;24.23;;;;;;;1.56;68.34;99693.28;5106435;28;20040;-72
2022/12/02 03:01:04;;;;;;;33.58;22.02;;;;;;;1.57;68.26;99689.78;5109030;28;20085;-72
2022/12/02 03:03:35;;;;;;;36.78;23.50;;;;;;;1.55;68.39;99683.72;5108943;28;20196;-72
2022/12/02 03:06:05;;;;;;;35.40;23.67;;;;;;;1.56;68.33;99685.47;5108059;28;20089;-72
2022/12/02 03:08:33;;;;;;;38.72;24.70;;;;;;;1.53;68.38;99685.50;5108942;28;20101;-72
2022/12/02 03:11:03;;;;;;;37.67;24.75;;;;;;;1.52;68.57;99682.91;5108615;28;20040;-72
2022/12/02 03:13:33;;;;;;;38.28;24.10;;;;;;;1.52;68.65;99685.53;5109061;28;20052;-72
2022/12/02 03:16:03;;;;;;;39.90;25.05;;;;;;;-0.33;68.46;99388.69;5107643;28;20238;-72
2022/12/02 03:18:30;;;;;;;33.75;21.42;;;;;;;0.33;68.41;99482.63;5107561;28;20299;-71
2022/12/02 03:20:57;;;;;;;37.05;23.83;;;;;;;1.52;68.67;99683.78;5107475;28;20036;-71
2022/12/02 03:23:24;;;;;;;38.78;23.30;;;;;;;1.51;68.53;99679.44;5108324;28;20044;-71
2022/12/02 03:25:51;;;;;;;35.35;22.27;;;;;;;1.50;68.53;99680.31;5107391;28;20043;-70
2022/12/02 03:28:19;;;;;;;37.95;25.60;;;;;;;1.49;68.57;99667.28;5108234;28;20044;-70
2022/12/02 03:30:46;;;;;;;37.20;24.17;;;;;;;1.34;68.59;99636.13;5108509;28;20044;-72
2022/12/02 03:33:14;;;;;;;37.30;24.92;;;;;;;1.51;68.47;99663.75;5107291;28;20361;-70
2022/12/02 03:35:41;;;;;;;37.10;24.67;;;;;;;1.50;68.42;99655.94;5107987;28;20047;-70
2022/12/02 03:38:07;;;;;;;37.95;24.73;;;;;;;1.48;68.46;99650.75;5107707;28;20066;-70
2022/12/02 03:40:34;;;;;;;36.35;24.42;;;;;;;1.22;68.67;99604.09;5108022;28;20097;-70
2022/12/02 03:43:01;;;;;;;35.65;23.15;;;;;;;1.48;68.54;99649.88;5107966;28;20040;-70
2022/12/02 03:45:28;;;;;;;36.08;22.48;;;;;;;1.47;68.56;99646.41;5107899;28;20040;-70
2022/12/02 03:47:55;;;;;;;34.97;22.52;;;;;;;1.48;68.69;99653.34;5107938;28;20207;-70
2022/12/02 03:50:24;;;;;;;34.80;22.83;;;;;;;1.48;68.55;99648.13;5106729;28;20068;-70
2022/12/02 03:52:51;;;;;;;36.58;23.73;;;;;;;1.47;68.50;99638.56;5108037;28;20048;-70
2022/12/02 03:55:17;;;;;;;39.33;23.67;;;;;;;1.48;68.62;99645.50;5107623;28;20044;-70
2022/12/02 03:57:44;;;;;;;37.95;24.23;;;;;;;1.46;68.60;99649.91;5107118;28;20405;-70
2022/12/02 04:00:13;;;;;;;34.30;24.10;;;;;;;1.45;68.69;99645.56;5107038;28;20326;-70
2022/12/02 04:02:39;;;;;;;41.75;25.80;;;;;;;1.44;68.58;99641.22;5107552;28;20036;-70
2022/12/02 04:05:07;;;;;;;38.40;25.10;;;;;;;1.21;68.57;99607.59;5107431;28;20047;-70
2022/12/02 04:07:35;;;;;;;38.30;25.38;;;;;;;1.43;68.84;99647.31;5107953;28;20055;-70
2022/12/02 04:10:01;;;;;;;37.22;23.40;;;;;;;1.40;68.67;99644.75;5107073;28;20039;-70
2022/12/02 04:12:28;;;;;;;35.83;23.02;;;;;;;1.42;68.72;99652.56;5107897;28;20044;-70
2022/12/02 04:14:55;;;;;;;35.53;23.83;;;;;;;1.41;68.62;99649.09;5107510;28;20090;-70
2022/12/02 04:17:22;;;;;;;38.17;24.33;;;;;;;1.42;68.70;99648.22;5107226;28;20047;-70
2022/12/02 04:19:49;;;;;;;36.00;23.55;;;;;;;1.43;68.74;99649.06;5107179;28;20324;-70
2022/12/02 04:22:16;;;;;;;39.13;24.52;;;;;;;1.42;68.59;99636.91;5107743;28;20051;-70
2022/12/02 04:24:44;;;;;;;38.38;24.33;;;;;;;1.40;68.62;99646.50;5106220;28;20036;-70
2022/12/02 04:27:10;;;;;;;41.78;26.83;;;;;;;1.40;68.60;99644.75;5107333;28;20194;-70
2022/12/02 04:29:37;;;;;;;35.15;23.48;;;;;;;1.37;68.68;99638.72;5107024;28;20145;-70
2022/12/02 04:32:04;;;;;;;38.38;24.65;;;;;;;1.06;68.98;99591.25;5106979;28;20300;-70
2022/12/02 04:34:31;;;;;;;38.17;23.58;;;;;;;1.39;68.90;99637.81;5106021;28;20085;-70
2022/12/02 04:36:58;;;;;;;36.38;23.42;;;;;;;1.20;68.93;99605.00;5106877;28;20059;-71
2022/12/02 04:39:24;;;;;;;38.72;24.60;;;;;;;1.38;68.78;99638.69;5106047;28;20197;-71
2022/12/02 04:41:52;;;;;;;36.97;24.95;;;;;;;1.37;68.71;99638.72;5107038;28;20054;-71
2022/12/02 04:44:19;;;;;;;41.22;25.08;;;;;;;1.36;68.91;99637.84;5105794;28;20044;-71
2022/12/02 04:46:46;;;;;;;40.05;26.17;;;;;;;1.37;68.88;99639.56;5105883;28;20058;-71
2022/12/02 04:49:13;;;;;;;35.90;23.15;;;;;;;1.38;68.76;99637.81;5106878;28;20044;-71
2022/12/02 04:51:39;;;;;;;38.00;25.10;;;;;;;1.37;68.78;99639.56;5106497;28;20081;-70
2022/12/02 04:54:06;;;;;;;36.67;24.75;;;;;;;1.37;68.82;99644.81;5106635;28;20058;-70
2022/12/02 04:56:33;;;;;;;35.92;24.65;;;;;;;1.37;68.93;99644.81;5106420;28;20040;-70
2022/12/02 04:59:01;;;;;;;36.05;23.48;;;;;;;1.36;68.88;99645.69;5106743;28;20082;-70
2022/12/02 05:01:27;;;;;;;37.28;24.17;;;;;;;1.36;68.81;99644.81;5106706;28;20077;-70
2022/12/02 05:03:54;;;;;;;39.55;25.63;;;;;;;1.36;68.88;99640.47;5105545;28;20040;-70
2022/12/02 05:06:21;;;;;;;40.22;25.77;;;;;;;1.13;68.89;99606.81;5106049;28;20081;-70
2022/12/02 05:08:49;;;;;;;35.45;23.65;;;;;;;0.98;68.87;99577.44;5106843;28;20222;-70
2022/12/02 05:11:15;;;;;;;39.30;24.73;;;;;;;1.10;68.90;99601.63;5106562;28;20371;-70
2022/12/02 05:13:42;;;;;;;36.00;24.60;;;;;;;1.35;68.83;99646.56;5105653;28;20123;-70
2022/12/02 05:16:10;;;;;;;40.08;26.73;;;;;;;1.35;69.01;99645.69;5106878;28;20238;-70
2022/12/02 05:18:37;;;;;;;40.03;24.92;;;;;;;1.33;68.80;99640.50;5106426;28;20207;-70
2022/12/02 05:21:04;;;;;;;39.53;24.50;;;;;;;1.32;68.93;99644.00;5088384;28;20036;-70
2022/12/02 05:23:30;;;;;;;35.00;23.95;;;;;;;1.32;69.07;99640.53;5105188;28;20052;-70
2022/12/02 05:25:57;;;;;;;38.55;24.38;;;;;;;1.30;68.90;99637.94;5105935;28;20040;-70
2022/12/02 05:28:24;;;;;;;37.78;24.85;;;;;;;1.31;69.06;99638.78;5105926;28;20086;-70
2022/12/02 05:30:50;;;;;;;36.35;24.23;;;;;;;1.31;68.96;99637.03;5106376;28;20066;-70
2022/12/02 05:33:19;;;;;;;37.40;23.05;;;;;;;1.10;68.96;99604.25;5104895;28;20082;-70
2022/12/02 05:35:45;;;;;;;39.55;25.13;;;;;;;1.29;69.12;99633.59;5105912;28;20089;-70
2022/12/02 05:38:12;;;;;;;42.50;26.67;;;;;;;1.29;68.93;99640.56;5106336;28;20059;-70
2022/12/02 05:40:39;;;;;;;37.88;25.30;;;;;;;1.29;68.98;99641.44;5105747;28;20089;-70
2022/12/02 05:43:16;;;;;;;40.40;26.15;;;;;;;1.12;68.97;99623.38;5106253;28;20036;-70
2022/12/02 05:45:43;;;;;;;40.80;26.85;;;;;;;1.28;69.08;99638.84;5105739;28;20100;-70
2022/12/02 05:48:11;;;;;;;38.05;26.30;;;;;;;1.06;68.88;99599.09;5104865;28;20036;-70
2022/12/02 05:50:40;;;;;;;38.85;25.60;;;;;;;0.63;69.08;99536.13;5104349;28;20056;-70
2022/12/02 05:53:07;;;;;;;42.60;25.63;;;;;;;1.24;69.50;99638.00;5105940;28;20058;-70
2022/12/02 05:55:35;;;;;;;41.58;25.40;;;;;;;1.22;69.19;99629.34;5106100;28;20032;-70
2022/12/02 05:58:03;;;;;;;39.78;25.23;;;;;;;1.22;69.35;99639.78;5105626;28;20051;-70
2022/12/02 06:00:30;;;;;;;40.53;26.15;;;;;;;0.98;69.28;99590.50;5104589;28;20044;-70
2022/12/02 06:03:01;;;;;;;37.72;26.10;;;;;;;1.20;69.17;99639.78;5105579;28;20115;-70
2022/12/02 06:05:31;;;;;;;41.45;24.35;;;;;;;1.18;69.19;99649.41;5105843;28;20040;-70
2022/12/02 06:08:08;;;;;;;38.67;25.50;;;;;;;1.19;69.24;99640.69;5105737;28;20082;-70
2022/12/02 06:10:38;;;;;;;41.92;24.42;;;;;;;1.19;69.27;99643.28;5104679;28;20044;-70
2022/12/02 06:13:11;;;;;;;52.80;26.50;;;;;;;1.20;69.33;99644.16;5105724;28;20040;-70
2022/12/02 06:15:38;;;;;;;43.28;25.05;;;;;;;1.20;69.29;99638.94;5105669;28;20036;-71
2022/12/02 06:18:12;;;;;;;38.65;24.52;;;;;;;1.18;69.38;99649.41;5105627;28;20060;-70
2022/12/02 06:20:39;;;;;;;39.95;28.27;;;;;;;1.19;69.42;99658.09;5105633;28;20090;-70
2022/12/02 06:23:12;;;;;;;39.15;25.50;;;;;;;0.91;69.28;99603.63;5105679;28;20059;-70
2022/12/02 06:25:39;;;;;;;39.45;23.88;;;;;;;1.17;69.28;99659.84;5104808;28;20043;-70
2022/12/02 06:28:19;;;;;;;40.20;25.60;;;;;;;1.14;69.46;99647.72;5105857;28;20234;-70
2022/12/02 06:30:46;;;;;;;39.17;25.15;;;;;;;1.14;69.60;99668.59;5105191;28;20043;-70
2022/12/02 06:33:24;;;;;;;39.50;24.38;;;;;;;1.15;69.50;99665.09;5106434;28;20230;-70
2022/12/02 06:35:52;;;;;;;43.03;27.42;;;;;;;1.13;69.50;99664.25;5108843;28;20191;-70
2022/12/02 06:38:27;;;;;;;35.78;23.70;;;;;;;-2.39;69.33;99071.66;5108546;28;20044;-70
2022/12/02 06:40:54;;;;;;;39.95;25.67;;;;;;;1.13;69.60;99677.31;5108294;28;20051;-71
2022/12/02 06:43:25;;;;;;;39.17;23.90;;;;;;;1.12;69.63;99677.31;5108133;28;20097;-71
2022/12/02 06:45:52;;;;;;;44.88;26.13;;;;;;;1.12;69.46;99674.72;5109398;28;20040;-71
2022/12/02 06:48:27;;;;;;;40.08;24.60;;;;;;;1.13;69.58;99682.53;5109156;28;20090;-70
2022/12/02 06:50:56;;;;;;;38.40;24.98;;;;;;;1.15;69.55;99679.91;5108789;28;20117;-71
2022/12/02 06:53:34;;;;;;;39.45;24.55;;;;;;;1.16;69.63;99679.00;5108830;28;20287;-70
2022/12/02 06:56:05;;;;;;;39.88;24.98;;;;;;;0.91;69.53;99739.31;5108703;28;20040;-71
2022/12/02 06:58:39;;;;;;;42.03;25.90;;;;;;;0.89;69.73;99630.63;5107873;28;20093;-70
2022/12/02 07:01:25;;;;;;;41.42;23.38;;;;;;;1.16;69.90;99673.78;5107816;28;20044;-71
2022/12/02 07:04:03;;;;;;;38.08;25.58;;;;;;;1.14;69.91;99673.81;5109213;28;20047;-70
2022/12/02 07:06:31;;;;;;;44.45;27.98;;;;;;;1.14;69.88;99675.56;5108471;28;20097;-71
2022/12/02 07:09:03;;;;;;;41.58;27.10;;;;;;;1.13;69.77;99673.84;5109151;28;20059;-71
2022/12/02 07:11:52;;;;;;;36.03;23.10;;;;;;;1.16;69.87;99676.41;5108301;28;20048;-70
2022/12/02 07:14:27;;;;;;;38.08;23.38;;;;;;;1.17;69.91;99678.13;5108720;28;20093;-71
2022/12/02 07:16:55;;;;;;;37.60;24.60;;;;;;;1.18;69.66;99677.25;5108226;28;20081;-71
2022/12/02 07:19:32;;;;;;;40.00;26.50;;;;;;;1.19;69.61;99686.81;5107452;28;20238;-70
2022/12/02 07:21:59;;;;;;;39.13;25.38;;;;;;;1.20;69.73;99678.09;5108825;28;20058;-70
2022/12/02 07:24:27;;;;;;;38.78;25.50;;;;;;;1.20;69.83;99667.66;5107945;28;20048;-70
2022/12/02 07:26:54;;;;;;;42.38;27.13;;;;;;;0.91;69.51;99621.88;5108184;28;20133;-71
2022/12/02 07:29:29;;;;;;;41.65;26.20;;;;;;;1.21;69.80;99677.22;5108459;28;20238;-71
2022/12/02 07:31:56;;;;;;;38.85;24.05;;;;;;;1.05;69.77;99636.50;5108418;28;20051;-70
2022/12/02 07:34:22;;;;;;;42.33;26.23;;;;;;;1.24;69.53;99674.56;5108231;28;20097;-71
2022/12/02 07:36:49;;;;;;;40.60;26.38;;;;;;;1.26;69.66;99673.66;5107842;28;20047;-71
2022/12/02 07:39:16;;;;;;;41.13;26.15;;;;;;;1.26;69.51;99672.78;5107133;28;20043;-71
2022/12/02 07:41:44;;;;;;;37.65;24.52;;;;;;;1.25;69.61;99674.53;5107907;28;20052;-71
2022/12/02 07:44:11;;;;;;;45.97;26.50;;;;;;;-3.01;69.23;98958.84;5107612;28;20040;-71
2022/12/02 07:46:38;;;;;;;42.42;27.13;;;;;;;1.25;69.64;99682.38;5106646;28;20063;-70
2022/12/02 07:49:04;;;;;;;38.58;25.25;;;;;;;1.27;69.65;99684.97;5107267;28;20040;-71
2022/12/02 07:51:31;;;;;;;43.05;25.67;;;;;;;1.31;69.55;99681.44;5107622;28;20060;-71
2022/12/02 07:53:58;;;;;;;37.63;24.50;;;;;;;1.30;69.43;99674.50;5107668;28;20056;-71
2022/12/02 07:56:24;;;;;;;41.15;27.35;;;;;;;1.32;69.39;99679.69;5108040;28;20062;-71
2022/12/02 07:58:53;;;;;;;43.35;29.23;;;;;;;1.31;69.58;99678.81;5107756;28;20040;-70
2022/12/02 08:01:20;;;;;;;40.35;25.35;;;;;;;1.33;69.40;99670.97;5107255;28;20044;-70
2022/12/02 08:03:47;;;;;;;39.80;26.48;;;;;;;0.89;69.21;99600.16;5108081;28;20044;-70
2022/12/02 08:06:14;;;;;;;42.80;26.98;;;;;;;1.32;69.24;99675.34;5107928;28;20215;-70
2022/12/02 08:08:40;;;;;;;40.35;25.25;;;;;;;1.33;69.31;99673.59;5107030;28;20052;-70
2022/12/02 08:11:07;;;;;;;37.47;25.10;;;;;;;1.32;69.34;99672.72;5107912;28;20043;-70
2022/12/02 08:13:34;;;;;;;44.38;26.70;;;;;;;1.32;69.28;99677.06;5106293;28;20050;-71
2022/12/02 08:16:02;;;;;;;41.25;26.05;;;;;;;1.30;69.28;99677.09;5107768;28;20056;-71
2022/12/02 08:18:29;;;;;;;38.85;25.67;;;;;;;1.29;69.32;99669.28;5107286;28;20044;-71
2022/12/02 08:20:55;;;;;;;39.08;25.15;;;;;;;1.28;69.23;99680.63;5107373;28;20304;-71
2022/12/02 08:23:22;;;;;;;39.80;25.52;;;;;;;1.30;69.44;99676.22;5107458;28;20103;-71
2022/12/02 08:25:49;;;;;;;41.72;26.42;;;;;;;1.29;69.16;99675.38;5107321;28;20081;-71
2022/12/02 08:28:15;;;;;;;41.58;27.17;;;;;;;1.30;69.07;99682.31;5107280;28;20043;-71
2022/12/02 08:30:42;;;;;;;39.40;25.38;;;;;;;1.33;69.32;99684.91;5106166;28;20048;-70
2022/12/02 08:33:10;;;;;;;40.72;26.55;;;;;;;1.34;69.07;99686.63;5106768;28;20044;-71
2022/12/02 08:35:38;;;;;;;38.80;24.52;;;;;;;1.35;69.08;99690.97;5107039;28;20226;-71
2022/12/02 08:38:06;;;;;;;41.67;26.27;;;;;;;1.37;69.00;99683.09;5107501;28;20067;-70
2022/12/02 08:40:33;;;;;;;40.90;25.25;;;;;;;1.36;69.17;99687.47;5107046;28;20067;-70
2022/12/02 08:43:00;;;;;;;45.08;26.70;;;;;;;1.37;68.98;99689.19;5106349;28;20055;-70
2022/12/02 08:45:27;;;;;;;42.78;25.73;;;;;;;1.38;69.19;99692.66;5106750;28;20056;-70
2022/12/02 08:47:54;;;;;;;40.33;26.15;;;;;;;1.38;69.07;99693.53;5106887;28;20059;-70
2022/12/02 08:50:22;;;;;;;43.75;26.70;;;;;;;1.18;69.18;99646.78;5106578;28;20311;-71
2022/12/02 08:52:49;;;;;;;46.20;28.50;;;;;;;1.40;69.07;99690.91;5106771;28;20052;-70
2022/12/02 08:55:16;;;;;;;40.03;25.13;;;;;;;1.40;69.25;99685.69;5106156;28;20051;-70
2022/12/02 08:57:43;;;;;;;42.60;27.05;;;;;;;1.40;69.16;99680.47;5106089;28;20040;-71
2022/12/02 09:00:11;;;;;;;44.75;26.45;;;;;;;1.39;69.33;99681.34;5106963;28;20056;-70
2022/12/02 09:02:37;;;;;;;41.00;26.90;;;;;;;1.40;69.28;99673.47;5106627;28;20047;-71
2022/12/02 09:05:05;;;;;;;39.70;25.23;;;;;;;1.39;69.18;99683.94;5106480;28;20065;-70
2022/12/02 09:07:33;;;;;;;40.97;28.88;;;;;;;1.40;69.09;99686.53;5106208;28;20043;-71
2022/12/02 09:10:00;;;;;;;43.63;26.23;;;;;;;1.40;69.25;99683.94;5106184;28;20043;-71
2022/12/02 09:12:27;;;;;;;39.55;25.52;;;;;;;1.42;69.33;99671.72;5106475;28;20047;-70
2022/12/02 09:14:54;;;;;;;43.03;28.40;;;;;;;1.44;69.20;99676.91;5106159;28;20093;-71
2022/12/02 09:17:21;;;;;;;39.63;27.02;;;;;;;1.44;69.42;99674.31;5106075;28;20086;-71
2022/12/02 09:19:47;;;;;;;40.83;25.60;;;;;;;1.46;69.27;99676.00;5106344;28;20044;-71
2022/12/02 09:22:14;;;;;;;41.97;27.05;;;;;;;1.23;69.13;99626.69;5106228;28;20056;-72
2022/12/02 09:24:42;;;;;;;47.33;31.17;;;;;;;1.52;69.19;99670.72;5105924;28;20040;-71
2022/12/02 09:27:09;;;;;;;41.42;27.00;;;;;;;1.53;69.04;99669.81;5105058;28;20032;-71
2022/12/02 09:29:36;;;;;;;41.05;27.45;;;;;;;1.51;68.93;99668.97;5106121;28;20097;-71
2022/12/02 09:32:02;;;;;;;42.70;25.10;;;;;;;1.20;68.91;99607.59;5105770;28;20085;-71
2022/12/02 09:34:29;;;;;;;41.17;26.73;;;;;;;1.57;69.00;99674.13;5106277;28;20040;-71
2022/12/02 09:36:56;;;;;;;38.22;25.05;;;;;;;1.61;68.79;99671.50;5105041;28;20047;-71
2022/12/02 09:39:23;;;;;;;40.80;27.65;;;;;;;1.62;68.97;99666.25;5104909;28;20204;-71
2022/12/02 09:41:51;;;;;;;44.83;28.27;;;;;;;1.63;68.88;99673.22;5105569;28;20307;-71
2022/12/02 09:44:18;;;;;;;42.28;26.27;;;;;;;1.63;68.78;99672.34;5104720;28;20322;-71
2022/12/02 09:46:45;;;;;;;43.65;27.25;;;;;;;1.58;68.78;99675.84;5105758;28;20296;-70
2022/12/02 09:49:12;;;;;;;46.05;29.73;;;;;;;1.56;68.83;99666.31;5087762;28;20035;-71
2022/12/02 09:51:38;;;;;;;38.97;26.20;;;;;;;1.23;69.22;99611.03;5105294;28;20063;-71
2022/12/02 09:54:05;;;;;;;46.03;28.70;;;;;;;1.62;69.30;99670.63;5104982;28;20048;-71
2022/12/02 09:56:32;;;;;;;39.22;26.48;;;;;;;1.60;69.22;99670.63;5104413;28;20032;-71
2022/12/02 09:59:00;;;;;;;45.47;27.05;;;;;;;1.58;69.37;99664.53;5105410;28;20048;-71
2022/12/02 10:01:27;;;;;;;41.92;25.95;;;;;;;1.53;69.23;99672.44;5105655;28;20051;-71
2022/12/02 10:03:54;;;;;;;42.35;27.60;;;;;;;1.51;69.37;99668.97;5105519;28;20101;-71
2022/12/02 10:06:25;;;;;;;44.70;28.77;;;;;;;1.55;69.53;99668.06;5105673;28;20040;-71
2022/12/02 10:08:53;;;;;;;39.30;24.65;;;;;;;1.55;69.68;99669.81;5109546;28;20056;-71
2022/12/02 10:11:23;;;;;;;47.92;28.50;;;;;;;1.52;69.66;99672.47;5109595;28;20100;-71
2022/12/02 10:13:50;;;;;;;42.53;28.13;;;;;;;0.86;69.86;99594.13;5109697;28;20314;-71
2022/12/02 10:16:19;;;;;;;43.70;28.10;;;;;;;1.40;70.18;99659.56;5109249;28;20312;-70
2022/12/02 10:18:46;;;;;;;39.47;26.52;;;;;;;1.36;70.76;99676.16;5109154;28;20206;-72
2022/12/02 10:21:13;;;;;;;44.47;28.70;;;;;;;1.13;70.58;99625.09;5109468;28;20040;-72
2022/12/02 10:23:54;;;;;;;42.25;27.70;;;;;;;1.33;71.33;99660.53;5108292;28;20040;-71
2022/12/02 10:26:21;;;;;;;46.00;28.48;;;;;;;0.77;70.84;99578.56;5108195;28;20032;-71
2022/12/02 10:29:05;;;;;;;43.33;27.38;;;;;;;1.39;71.27;99653.47;5109416;28;20043;-71
2022/12/02 10:31:34;;;;;;;44.33;29.03;;;;;;;1.24;70.87;99620.59;5109150;28;20040;-71
2022/12/02 10:34:04;;;;;;;43.00;26.83;;;;;;;0.65;70.78;99516.13;5108428;28;20307;-71
2022/12/02 10:36:35;;;;;;;42.65;27.40;;;;;;;1.47;71.20;99649.00;5109278;28;20231;-71
2022/12/02 10:39:21;;;;;;;47.88;30.52;;;;;;;1.49;71.81;99649.00;5108242;28;20054;-71
2022/12/02 10:41:48;;;;;;;41.25;26.77;;;;;;;1.51;71.26;99645.47;5108854;28;20044;-71
2022/12/02 10:44:17;;;;;;;50.63;29.15;;;;;;;1.52;71.61;99648.94;5109475;28;20052;-70
2022/12/02 10:46:45;;;;;;;45.63;27.83;;;;;;;1.52;71.49;99648.94;5109695;28;20036;-70
2022/12/02 10:49:27;;;;;;;41.80;27.42;;;;;;;1.56;71.43;99643.66;5109084;28;20040;-71
2022/12/02 10:51:54;;;;;;;46.13;28.42;;;;;;;1.61;71.23;99648.00;5108469;28;20063;-71
2022/12/02 10:54:25;;;;;;;43.97;27.92;;;;;;;0.75;71.46;99526.41;5108983;28;20322;-71
2022/12/02 10:56:52;;;;;;;43.17;29.13;;;;;;;1.63;71.60;99647.09;5109241;28;20099;-71
2022/12/02 10:59:19;;;;;;;41.20;27.45;;;;;;;1.64;71.66;99647.94;5108845;28;20307;-70
2022/12/02 11:01:47;;;;;;;47.92;29.60;;;;;;;0.99;71.62;99538.28;5109197;28;20097;-71
2022/12/02 11:04:15;;;;;;;42.15;26.17;;;;;;;1.50;71.42;99620.25;5108524;28;20044;-72
2022/12/02 11:06:43;;;;;;;43.42;29.17;;;;;;;0.70;71.79;99499.53;5109046;28;20040;-72
2022/12/02 11:09:16;;;;;;;43.03;27.33;;;;;;;1.64;72.01;99640.97;5107515;28;20097;-72
2022/12/02 11:11:43;;;;;;;45.95;28.83;;;;;;;1.65;72.01;99645.31;5107439;28;20074;-72
2022/12/02 11:14:12;;;;;;;43.95;29.10;;;;;;;1.65;72.04;99642.69;5108301;28;20349;-72
2022/12/02 11:17:08;;;;;;;47.67;28.55;;;;;;;1.65;72.86;99641.84;5108502;28;20057;-73
2022/12/02 11:19:46;;;;;;;;;;;;;;;1.55;73.52;99638.47;5106336;28;20056;-72
2022/12/02 11:23:07;;;;;;;44.83;28.05;;;;;;;1.55;73.21;99639.31;5108307;28;19998;-72
2022/12/02 11:25:55;;;;;;;44.70;28.40;;;;;;;1.54;73.39;99639.34;5108330;28;20172;-72
2022/12/02 11:28:59;;;;;;;53.25;32.38;;;;;;;1.45;73.21;99636.84;5108291;28;20046;-73
2022/12/02 11:31:27;;;;;;;51.22;31.98;;;;;;;1.35;72.82;99636.13;5107566;28;20051;-73
2022/12/02 11:34:26;;;;;;;49.70;31.50;;;;;;;1.31;73.76;99639.66;5107785;28;20040;-72